CPA742 VVNB-VHHH
Flight info
| Callsign | CPA742 |
|---|---|
| Flight time | N/A |
| Altitude | 39100 |
| Route | NAKHA3A NAKHA R474 GYA A599 POU R473 SIERA |
| Aircraft | A35K/H-SDE2E3GHIJ3J4J5LM1ORWXY/LB1D1 |
Departure
| Time | 2026-04-29 12:41 |
|---|---|
| Airport | Noi Bai International Airport (VVNB) |
Arrival
| Time | N/A |
|---|---|
| Airport | Hong Kong International Airport (VHHH) |
| Time | Latitude | Longitude | Altitude | Speed | Heading |
|---|---|---|---|---|---|
| 2026-04-29 11:53 | 21.21990 | 105.78998 | 50 ft | 0 kts | 198° |
| 2026-04-29 12:32 | 21.22009 | 105.79004 | 48 ft | 4 kts | 197° |
| 2026-04-29 12:32 | 21.22035 | 105.79013 | 48 ft | 4 kts | 199° |
| 2026-04-29 12:32 | 21.22060 | 105.79023 | 48 ft | 4 kts | 200° |
| 2026-04-29 12:33 | 21.22085 | 105.79033 | 48 ft | 3 kts | 201° |
| 2026-04-29 12:33 | 21.22088 | 105.79034 | 48 ft | 0 kts | 201° |
| 2026-04-29 12:37 | 21.22078 | 105.79025 | 48 ft | 2 kts | 229° |
| 2026-04-29 12:37 | 21.22077 | 105.79009 | 48 ft | 2 kts | 276° |
| 2026-04-29 12:37 | 21.22083 | 105.78995 | 48 ft | 4 kts | 297° |
| 2026-04-29 12:38 | 21.22102 | 105.78956 | 50 ft | 8 kts | 297° |
| 2026-04-29 12:38 | 21.22127 | 105.78895 | 52 ft | 11 kts | 289° |
| 2026-04-29 12:38 | 21.22153 | 105.78808 | 53 ft | 14 kts | 288° |
| 2026-04-29 12:38 | 21.22186 | 105.78700 | 54 ft | 16 kts | 288° |
| 2026-04-29 12:39 | 21.22208 | 105.78622 | 51 ft | 9 kts | 289° |
| 2026-04-29 12:39 | 21.22245 | 105.78586 | 48 ft | 8 kts | 341° |
| 2026-04-29 12:39 | 21.22308 | 105.78593 | 52 ft | 11 kts | 17° |
| 2026-04-29 12:39 | 21.22383 | 105.78618 | 54 ft | 9 kts | 17° |
| 2026-04-29 12:40 | 21.22436 | 105.78637 | 55 ft | 6 kts | 24° |
| 2026-04-29 12:40 | 21.22448 | 105.78669 | 50 ft | 6 kts | 83° |
| 2026-04-29 12:40 | 21.22440 | 105.78727 | 51 ft | 9 kts | 106° |
| 2026-04-29 12:40 | 21.22436 | 105.78739 | 51 ft | 0 kts | 107° |
| 2026-04-29 12:41 | 21.22419 | 105.78799 | 53 ft | 34 kts | 107° |
| 2026-04-29 12:41 | 21.22264 | 105.79338 | 54 ft | 115 kts | 107° |
| 2026-04-29 12:41 | 21.21955 | 105.80400 | 57 ft | 180 kts | 108° |
| 2026-04-29 12:41 | 21.21532 | 105.81692 | 915 ft | 181 kts | 110° |
| 2026-04-29 12:42 | 21.21153 | 105.82947 | 1830 ft | 173 kts | 103° |
| 2026-04-29 12:42 | 21.20801 | 105.84195 | 2547 ft | 183 kts | 102° |
| 2026-04-29 12:42 | 21.20407 | 105.85582 | 2908 ft | 211 kts | 105° |
| 2026-04-29 12:42 | 21.19971 | 105.87192 | 3357 ft | 238 kts | 101° |
| 2026-04-29 12:43 | 21.19528 | 105.88966 | 3932 ft | 252 kts | 101° |
| 2026-04-29 12:43 | 21.19045 | 105.90799 | 4597 ft | 258 kts | 102° |
| 2026-04-29 12:43 | 21.18539 | 105.92664 | 5289 ft | 263 kts | 103° |
| 2026-04-29 12:43 | 21.18011 | 105.94577 | 5717 ft | 272 kts | 103° |
| 2026-04-29 12:44 | 21.17603 | 105.96581 | 6294 ft | 278 kts | 92° |
| 2026-04-29 12:44 | 21.17831 | 105.98618 | 6827 ft | 278 kts | 68° |
| 2026-04-29 12:44 | 21.18828 | 106.00380 | 7363 ft | 279 kts | 44° |
| 2026-04-29 12:44 | 21.20380 | 106.01627 | 7965 ft | 281 kts | 28° |
| 2026-04-29 12:45 | 21.22088 | 106.02677 | 8586 ft | 285 kts | 26° |
| 2026-04-29 12:45 | 21.23833 | 106.03733 | 9187 ft | 291 kts | 27° |
| 2026-04-29 12:45 | 21.25608 | 106.04820 | 9762 ft | 297 kts | 27° |
| 2026-04-29 12:45 | 21.27420 | 106.05937 | 10188 ft | 308 kts | 27° |
| 2026-04-29 12:46 | 21.29324 | 106.07114 | 10448 ft | 323 kts | 27° |
| 2026-04-29 12:46 | 21.31321 | 106.08355 | 10709 ft | 338 kts | 28° |
| 2026-04-29 12:46 | 21.33392 | 106.09647 | 10974 ft | 351 kts | 27° |
| 2026-04-29 12:46 | 21.35525 | 106.10979 | 11383 ft | 358 kts | 27° |
| 2026-04-29 12:47 | 21.37689 | 106.12331 | 11857 ft | 362 kts | 27° |
| 2026-04-29 12:47 | 21.39880 | 106.13701 | 12364 ft | 366 kts | 27° |
| 2026-04-29 12:47 | 21.42062 | 106.15066 | 12862 ft | 370 kts | 27° |
| 2026-04-29 12:47 | 21.44294 | 106.16462 | 13332 ft | 373 kts | 27° |
| 2026-04-29 12:48 | 21.46545 | 106.17871 | 13796 ft | 377 kts | 27° |
| 2026-04-29 12:48 | 21.48826 | 106.19298 | 14225 ft | 380 kts | 27° |
| 2026-04-29 12:48 | 21.51119 | 106.20733 | 14649 ft | 383 kts | 27° |
| 2026-04-29 12:48 | 21.53433 | 106.22182 | 15091 ft | 386 kts | 27° |
| 2026-04-29 12:49 | 21.55762 | 106.23640 | 15516 ft | 389 kts | 27° |
| 2026-04-29 12:49 | 21.58109 | 106.25111 | 15956 ft | 392 kts | 27° |
| 2026-04-29 12:49 | 21.60481 | 106.26599 | 16374 ft | 396 kts | 27° |
| 2026-04-29 12:49 | 21.62870 | 106.28097 | 16803 ft | 399 kts | 27° |
| 2026-04-29 12:50 | 21.65241 | 106.29583 | 17247 ft | 402 kts | 27° |
| 2026-04-29 12:50 | 21.67698 | 106.31124 | 17661 ft | 405 kts | 27° |
| 2026-04-29 12:50 | 21.70109 | 106.32638 | 18040 ft | 409 kts | 28° |
| 2026-04-29 12:50 | 21.72574 | 106.34194 | 18421 ft | 412 kts | 28° |
| 2026-04-29 12:51 | 21.75055 | 106.35755 | 18827 ft | 413 kts | 27° |
| 2026-04-29 12:51 | 21.77543 | 106.37317 | 19222 ft | 415 kts | 27° |
| 2026-04-29 12:51 | 21.80049 | 106.38893 | 19556 ft | 418 kts | 27° |
| 2026-04-29 12:51 | 21.82570 | 106.40476 | 19913 ft | 421 kts | 27° |
| 2026-04-29 12:52 | 21.85102 | 106.42068 | 20263 ft | 423 kts | 27° |
| 2026-04-29 12:52 | 21.87650 | 106.43672 | 20595 ft | 426 kts | 27° |
| 2026-04-29 12:52 | 21.90226 | 106.45292 | 20922 ft | 429 kts | 27° |
| 2026-04-29 12:52 | 21.92809 | 106.46921 | 21281 ft | 430 kts | 27° |
| 2026-04-29 12:53 | 21.95396 | 106.48561 | 21638 ft | 433 kts | 28° |
| 2026-04-29 12:53 | 21.97879 | 106.50362 | 21974 ft | 437 kts | 33° |
| 2026-04-29 12:53 | 22.00309 | 106.52361 | 22302 ft | 441 kts | 36° |
| 2026-04-29 12:53 | 22.02699 | 106.54450 | 22620 ft | 444 kts | 37° |
| 2026-04-29 12:54 | 22.05079 | 106.56578 | 22839 ft | 445 kts | 37° |
| 2026-04-29 12:54 | 22.07469 | 106.58720 | 23043 ft | 448 kts | 37° |
| 2026-04-29 12:54 | 22.09881 | 106.60866 | 23394 ft | 449 kts | 37° |
| 2026-04-29 12:54 | 22.12301 | 106.63005 | 23651 ft | 452 kts | 37° |
| 2026-04-29 12:55 | 22.14745 | 106.65151 | 23891 ft | 454 kts | 36° |
| 2026-04-29 12:55 | 22.17171 | 106.67352 | 24154 ft | 457 kts | 40° |
| 2026-04-29 12:55 | 22.19497 | 106.69698 | 24410 ft | 459 kts | 41° |
| 2026-04-29 12:55 | 22.21777 | 106.72068 | 24677 ft | 461 kts | 42° |
| 2026-04-29 12:56 | 22.24069 | 106.74495 | 24936 ft | 463 kts | 42° |
| 2026-04-29 12:56 | 22.26366 | 106.76947 | 25138 ft | 466 kts | 42° |
| 2026-04-29 12:56 | 22.28677 | 106.79419 | 25378 ft | 468 kts | 42° |
| 2026-04-29 12:56 | 22.30989 | 106.81894 | 25620 ft | 470 kts | 42° |
| 2026-04-29 12:57 | 22.33185 | 106.84527 | 25862 ft | 474 kts | 50° |
| 2026-04-29 12:57 | 22.34992 | 106.87534 | 26094 ft | 479 kts | 61° |
| 2026-04-29 12:57 | 22.36253 | 106.90872 | 26328 ft | 483 kts | 74° |
| 2026-04-29 12:57 | 22.37096 | 106.94394 | 26579 ft | 484 kts | 77° |
| 2026-04-29 12:58 | 22.37791 | 106.97961 | 26842 ft | 486 kts | 79° |
| 2026-04-29 12:58 | 22.38421 | 107.01565 | 27115 ft | 489 kts | 80° |
| 2026-04-29 12:58 | 22.39031 | 107.05191 | 27370 ft | 491 kts | 80° |
| 2026-04-29 12:58 | 22.39646 | 107.08833 | 27660 ft | 493 kts | 80° |
| 2026-04-29 12:59 | 22.40272 | 107.12477 | 27934 ft | 495 kts | 80° |
| 2026-04-29 12:59 | 22.40916 | 107.16147 | 28182 ft | 498 kts | 79° |
| 2026-04-29 12:59 | 22.41562 | 107.19788 | 28454 ft | 500 kts | 79° |
| 2026-04-29 12:59 | 22.42222 | 107.23479 | 28732 ft | 502 kts | 79° |
| 2026-04-29 13:00 | 22.42888 | 107.27199 | 29013 ft | 504 kts | 79° |
| 2026-04-29 13:00 | 22.43560 | 107.30927 | 29287 ft | 506 kts | 79° |
| 2026-04-29 13:00 | 22.44241 | 107.34679 | 29564 ft | 509 kts | 79° |
| 2026-04-29 13:00 | 22.44925 | 107.38450 | 29838 ft | 511 kts | 79° |
| 2026-04-29 13:01 | 22.45610 | 107.42231 | 30092 ft | 513 kts | 79° |
| 2026-04-29 13:01 | 22.46298 | 107.46036 | 30365 ft | 516 kts | 79° |
| 2026-04-29 13:01 | 22.46979 | 107.49814 | 30475 ft | 521 kts | 79° |
| 2026-04-29 13:01 | 22.47672 | 107.53671 | 30719 ft | 523 kts | 79° |
| 2026-04-29 13:02 | 22.48366 | 107.57536 | 31050 ft | 524 kts | 79° |
| 2026-04-29 13:02 | 22.49060 | 107.61416 | 31356 ft | 525 kts | 79° |
| 2026-04-29 13:02 | 22.49755 | 107.65304 | 31647 ft | 527 kts | 79° |
| 2026-04-29 13:02 | 22.50450 | 107.69200 | 31921 ft | 529 kts | 79° |
| 2026-04-29 13:03 | 22.51146 | 107.73104 | 32180 ft | 530 kts | 79° |
| 2026-04-29 13:03 | 22.51846 | 107.77038 | 32449 ft | 532 kts | 79° |
| 2026-04-29 13:03 | 22.52546 | 107.80971 | 32716 ft | 533 kts | 79° |
| 2026-04-29 13:03 | 22.53245 | 107.84912 | 33015 ft | 535 kts | 79° |
| 2026-04-29 13:04 | 22.53947 | 107.88870 | 33288 ft | 537 kts | 79° |
| 2026-04-29 13:04 | 22.54651 | 107.92846 | 33563 ft | 538 kts | 79° |
| 2026-04-29 13:04 | 22.55354 | 107.96823 | 33833 ft | 540 kts | 80° |
| 2026-04-29 13:04 | 22.56059 | 108.00822 | 34098 ft | 541 kts | 80° |
| 2026-04-29 13:05 | 22.56766 | 108.04832 | 34345 ft | 543 kts | 80° |
| 2026-04-29 13:05 | 22.57472 | 108.08844 | 34596 ft | 544 kts | 80° |
| 2026-04-29 13:05 | 22.58177 | 108.12860 | 34920 ft | 542 kts | 80° |
| 2026-04-29 13:05 | 22.58872 | 108.16868 | 35278 ft | 540 kts | 81° |
| 2026-04-29 13:06 | 22.59431 | 108.20884 | 35627 ft | 538 kts | 84° |
| 2026-04-29 13:06 | 22.59875 | 108.24898 | 35964 ft | 537 kts | 85° |
| 2026-04-29 13:06 | 22.60273 | 108.28854 | 36284 ft | 536 kts | 85° |
| 2026-04-29 13:06 | 22.60674 | 108.32865 | 36595 ft | 535 kts | 85° |
| 2026-04-29 13:07 | 22.61089 | 108.36857 | 36918 ft | 533 kts | 85° |
| 2026-04-29 13:07 | 22.61518 | 108.40840 | 37233 ft | 532 kts | 84° |
| 2026-04-29 13:07 | 22.61959 | 108.44818 | 37550 ft | 531 kts | 84° |
| 2026-04-29 13:07 | 22.62405 | 108.48781 | 37887 ft | 529 kts | 84° |
| 2026-04-29 13:08 | 22.62853 | 108.52726 | 38215 ft | 528 kts | 84° |
| 2026-04-29 13:08 | 22.63299 | 108.56658 | 38506 ft | 526 kts | 84° |
| 2026-04-29 13:08 | 22.63745 | 108.60592 | 38783 ft | 526 kts | 84° |
| 2026-04-29 13:08 | 22.64188 | 108.64524 | 38913 ft | 527 kts | 84° |
| 2026-04-29 13:09 | 22.64631 | 108.68467 | 38927 ft | 527 kts | 84° |
| 2026-04-29 13:09 | 22.65512 | 108.76356 | 38935 ft | 528 kts | 84° |
| 2026-04-29 13:10 | 22.66385 | 108.84210 | 38938 ft | 528 kts | 84° |
| 2026-04-29 13:10 | 22.67257 | 108.92095 | 38939 ft | 527 kts | 84° |
| 2026-04-29 13:11 | 22.68126 | 108.99987 | 38942 ft | 527 kts | 84° |
| 2026-04-29 13:11 | 22.68990 | 109.07877 | 38941 ft | 527 kts | 84° |
| 2026-04-29 13:12 | 22.69855 | 109.15762 | 38942 ft | 528 kts | 84° |
| 2026-04-29 13:12 | 22.70745 | 109.23658 | 38943 ft | 529 kts | 84° |
| 2026-04-29 13:13 | 22.71643 | 109.31562 | 38947 ft | 529 kts | 84° |
| 2026-04-29 13:13 | 22.72549 | 109.39430 | 38946 ft | 529 kts | 84° |
| 2026-04-29 13:14 | 22.73461 | 109.47338 | 38953 ft | 529 kts | 84° |
| 2026-04-29 13:14 | 22.74372 | 109.55265 | 38958 ft | 531 kts | 84° |
| 2026-04-29 13:15 | 22.75277 | 109.63206 | 38950 ft | 531 kts | 84° |
| 2026-04-29 13:15 | 22.76179 | 109.71151 | 38952 ft | 531 kts | 84° |
| 2026-04-29 13:16 | 22.77073 | 109.79052 | 38954 ft | 531 kts | 84° |
| 2026-04-29 13:16 | 22.77968 | 109.86998 | 38961 ft | 532 kts | 85° |
| 2026-04-29 13:17 | 22.78861 | 109.94964 | 38964 ft | 532 kts | 85° |
| 2026-04-29 13:17 | 22.79755 | 110.02964 | 38964 ft | 534 kts | 85° |
| 2026-04-29 13:18 | 22.80643 | 110.10959 | 38965 ft | 534 kts | 85° |
| 2026-04-29 13:18 | 22.81522 | 110.18901 | 38962 ft | 534 kts | 85° |
| 2026-04-29 13:19 | 22.82403 | 110.26892 | 38968 ft | 533 kts | 85° |
| 2026-04-29 13:19 | 22.83276 | 110.34874 | 38972 ft | 533 kts | 85° |
| 2026-04-29 13:20 | 22.84147 | 110.42851 | 38969 ft | 533 kts | 85° |
| 2026-04-29 13:20 | 22.85016 | 110.50834 | 38968 ft | 533 kts | 85° |
| 2026-04-29 13:21 | 22.85889 | 110.58804 | 38973 ft | 532 kts | 85° |
| 2026-04-29 13:21 | 22.86827 | 110.66769 | 38972 ft | 532 kts | 84° |
| 2026-04-29 13:22 | 22.87775 | 110.74727 | 38975 ft | 532 kts | 84° |
| 2026-04-29 13:22 | 22.88708 | 110.82691 | 38970 ft | 532 kts | 85° |
| 2026-04-29 13:23 | 22.89631 | 110.90658 | 38977 ft | 531 kts | 85° |
| 2026-04-29 13:23 | 22.90543 | 110.98569 | 38974 ft | 531 kts | 85° |
| 2026-04-29 13:24 | 22.91447 | 111.06436 | 38980 ft | 531 kts | 85° |
| 2026-04-29 13:24 | 22.92358 | 111.14396 | 38978 ft | 531 kts | 85° |
| 2026-04-29 13:25 | 22.93264 | 111.22345 | 38975 ft | 531 kts | 85° |
| 2026-04-29 13:25 | 22.94619 | 111.34273 | 38976 ft | 531 kts | 85° |
| 2026-04-29 13:26 | 22.95364 | 111.40877 | 38976 ft | 531 kts | 85° |
| 2026-04-29 13:26 | 22.96259 | 111.48837 | 38975 ft | 531 kts | 85° |
| 2026-04-29 13:27 | 22.97148 | 111.56795 | 38980 ft | 531 kts | 85° |
| 2026-04-29 13:27 | 22.98033 | 111.64755 | 38978 ft | 531 kts | 85° |
| 2026-04-29 13:28 | 22.98897 | 111.72712 | 38977 ft | 531 kts | 85° |
| 2026-04-29 13:28 | 22.99757 | 111.80682 | 38979 ft | 531 kts | 85° |
| 2026-04-29 13:29 | 23.00612 | 111.88616 | 38985 ft | 527 kts | 85° |
| 2026-04-29 13:29 | 23.01460 | 111.96513 | 38987 ft | 527 kts | 85° |
| 2026-04-29 13:30 | 23.02298 | 112.04354 | 38989 ft | 526 kts | 86° |
| 2026-04-29 13:30 | 23.03139 | 112.12251 | 38996 ft | 526 kts | 86° |
| 2026-04-29 13:31 | 23.03975 | 112.20142 | 39000 ft | 526 kts | 85° |
| 2026-04-29 13:31 | 23.04807 | 112.28031 | 38995 ft | 525 kts | 85° |
| 2026-04-29 13:32 | 23.05635 | 112.35920 | 39000 ft | 526 kts | 86° |
| 2026-04-29 13:32 | 23.06460 | 112.43824 | 38997 ft | 527 kts | 86° |
| 2026-04-29 13:33 | 23.06781 | 112.49986 | 39004 ft | 524 kts | 95° |
| 2026-04-29 13:33 | 23.06393 | 112.57675 | 39002 ft | 525 kts | 97° |
| 2026-04-29 13:34 | 23.05859 | 112.65537 | 38997 ft | 525 kts | 97° |
| 2026-04-29 13:34 | 23.05302 | 112.73446 | 39001 ft | 525 kts | 97° |
| 2026-04-29 13:35 | 23.04752 | 112.81352 | 38999 ft | 525 kts | 97° |
| 2026-04-29 13:35 | 23.04205 | 112.89277 | 38995 ft | 527 kts | 97° |
| 2026-04-29 13:36 | 23.03656 | 112.97220 | 38994 ft | 527 kts | 97° |
| 2026-04-29 13:36 | 23.03101 | 113.05103 | 38990 ft | 527 kts | 98° |
| 2026-04-29 13:37 | 23.01432 | 113.12748 | 38986 ft | 515 kts | 117° |
| 2026-04-29 13:37 | 22.99799 | 113.16172 | 38989 ft | 507 kts | 128° |
| 2026-04-29 13:37 | 22.97675 | 113.19190 | 38991 ft | 499 kts | 138° |
| 2026-04-29 13:38 | 22.92292 | 113.23712 | 38996 ft | 484 kts | 158° |
| 2026-04-29 13:38 | 22.86023 | 113.25982 | 38978 ft | 469 kts | 176° |
| 2026-04-29 13:39 | 22.82812 | 113.26406 | 38767 ft | 466 kts | 177° |
| 2026-04-29 13:39 | 22.79603 | 113.27060 | 38551 ft | 474 kts | 171° |
| 2026-04-29 13:39 | 22.76439 | 113.27981 | 38284 ft | 477 kts | 169° |
| 2026-04-29 13:39 | 22.73251 | 113.28990 | 38017 ft | 478 kts | 168° |
| 2026-04-29 13:40 | 22.70064 | 113.30055 | 37704 ft | 476 kts | 167° |
| 2026-04-29 13:40 | 22.66925 | 113.31137 | 37212 ft | 471 kts | 167° |
| 2026-04-29 13:40 | 22.63820 | 113.32222 | 36649 ft | 468 kts | 167° |
| 2026-04-29 13:40 | 22.60726 | 113.33307 | 36031 ft | 466 kts | 167° |
| 2026-04-29 13:41 | 22.57636 | 113.34386 | 35372 ft | 466 kts | 166° |
| 2026-04-29 13:41 | 22.54542 | 113.35462 | 34717 ft | 466 kts | 166° |
| 2026-04-29 13:41 | 22.51449 | 113.36534 | 34147 ft | 465 kts | 166° |
| 2026-04-29 13:41 | 22.48379 | 113.37597 | 33584 ft | 462 kts | 166° |
| 2026-04-29 13:42 | 22.45323 | 113.38652 | 33046 ft | 459 kts | 166° |
| 2026-04-29 13:42 | 22.42295 | 113.39697 | 32548 ft | 455 kts | 166° |
| 2026-04-29 13:42 | 22.39289 | 113.40734 | 32042 ft | 451 kts | 166° |
| 2026-04-29 13:42 | 22.36310 | 113.41761 | 31528 ft | 448 kts | 166° |
| 2026-04-29 13:43 | 22.33386 | 113.42768 | 31038 ft | 445 kts | 166° |
| 2026-04-29 13:43 | 22.30443 | 113.43781 | 30521 ft | 442 kts | 166° |
| 2026-04-29 13:43 | 22.27519 | 113.44787 | 30022 ft | 439 kts | 166° |
| 2026-04-29 13:43 | 22.24614 | 113.45786 | 29474 ft | 436 kts | 167° |
| 2026-04-29 13:44 | 22.21727 | 113.46780 | 28987 ft | 433 kts | 167° |
| 2026-04-29 13:44 | 22.18875 | 113.47805 | 28478 ft | 430 kts | 165° |
| 2026-04-29 13:44 | 22.16059 | 113.48853 | 27989 ft | 426 kts | 165° |
| 2026-04-29 13:44 | 22.13267 | 113.49889 | 27522 ft | 422 kts | 166° |
| 2026-04-29 13:45 | 22.10504 | 113.50907 | 27048 ft | 418 kts | 166° |
| 2026-04-29 13:45 | 22.07799 | 113.51900 | 26574 ft | 414 kts | 166° |
| 2026-04-29 13:45 | 22.05080 | 113.52897 | 26118 ft | 410 kts | 166° |
| 2026-04-29 13:45 | 22.02389 | 113.53871 | 25647 ft | 406 kts | 167° |
| 2026-04-29 13:46 | 21.99677 | 113.54460 | 25381 ft | 389 kts | 181° |
| 2026-04-29 13:46 | 21.97039 | 113.54292 | 25081 ft | 377 kts | 197° |
| 2026-04-29 13:46 | 21.94540 | 113.53374 | 24904 ft | 383 kts | 207° |
| 2026-04-29 13:46 | 21.92118 | 113.52184 | 24396 ft | 382 kts | 208° |
| 2026-04-29 13:47 | 21.89706 | 113.50969 | 23784 ft | 384 kts | 208° |
| 2026-04-29 13:47 | 21.87288 | 113.49757 | 23257 ft | 381 kts | 208° |
| 2026-04-29 13:47 | 21.84892 | 113.48561 | 22762 ft | 376 kts | 208° |
| 2026-04-29 13:47 | 21.82540 | 113.47392 | 22338 ft | 370 kts | 208° |
| 2026-04-29 13:48 | 21.80217 | 113.46238 | 21912 ft | 365 kts | 208° |
| 2026-04-29 13:48 | 21.77941 | 113.45108 | 21565 ft | 357 kts | 208° |
| 2026-04-29 13:48 | 21.75716 | 113.44007 | 21417 ft | 344 kts | 208° |
| 2026-04-29 13:48 | 21.73586 | 113.42954 | 21294 ft | 331 kts | 208° |
| 2026-04-29 13:49 | 21.71511 | 113.41950 | 21164 ft | 329 kts | 206° |
| 2026-04-29 13:49 | 21.69223 | 113.41239 | 21163 ft | 359 kts | 191° |
| 2026-04-29 13:49 | 21.66630 | 113.41395 | 21166 ft | 389 kts | 171° |
| 2026-04-29 13:49 | 21.64126 | 113.42468 | 20910 ft | 396 kts | 154° |
| 2026-04-29 13:50 | 21.61971 | 113.44388 | 20060 ft | 411 kts | 135° |
| 2026-04-29 13:50 | 21.60278 | 113.46915 | 19205 ft | 421 kts | 127° |
| 2026-04-29 13:50 | 21.58668 | 113.49547 | 18485 ft | 422 kts | 127° |
| 2026-04-29 13:50 | 21.57024 | 113.52156 | 17768 ft | 421 kts | 128° |
| 2026-04-29 13:51 | 21.55487 | 113.54856 | 17003 ft | 424 kts | 117° |
| 2026-04-29 13:51 | 21.54706 | 113.57907 | 16393 ft | 425 kts | 97° |
| 2026-04-29 13:51 | 21.54858 | 113.61063 | 15750 ft | 424 kts | 78° |
| 2026-04-29 13:51 | 21.55939 | 113.63967 | 15207 ft | 418 kts | 57° |
| 2026-04-29 13:52 | 21.57810 | 113.66288 | 14711 ft | 407 kts | 37° |
| 2026-04-29 13:52 | 21.60223 | 113.67770 | 14127 ft | 396 kts | 15° |
| 2026-04-29 13:52 | 21.62875 | 113.68228 | 13653 ft | 379 kts | 353° |
| 2026-04-29 13:52 | 21.65351 | 113.67630 | 13329 ft | 355 kts | 330° |
| 2026-04-29 13:53 | 21.67266 | 113.66133 | 13103 ft | 330 kts | 307° |
| 2026-04-29 13:53 | 21.68335 | 113.64014 | 12922 ft | 323 kts | 282° |
| 2026-04-29 13:53 | 21.68405 | 113.61618 | 12890 ft | 323 kts | 258° |
| 2026-04-29 13:53 | 21.67488 | 113.59434 | 12893 ft | 325 kts | 234° |
| 2026-04-29 13:54 | 21.65782 | 113.57889 | 12875 ft | 331 kts | 211° |
| 2026-04-29 13:54 | 21.63541 | 113.57242 | 12891 ft | 342 kts | 187° |
| 2026-04-29 13:54 | 21.61166 | 113.57658 | 12895 ft | 353 kts | 163° |
| 2026-04-29 13:54 | 21.58911 | 113.58700 | 12886 ft | 347 kts | 158° |
| 2026-04-29 13:55 | 21.57101 | 113.60323 | 12885 ft | 337 kts | 131° |
| 2026-04-29 13:55 | 21.56154 | 113.62584 | 12888 ft | 334 kts | 103° |
| 2026-04-29 13:55 | 21.56053 | 113.65092 | 12891 ft | 336 kts | 89° |
| 2026-04-29 13:55 | 21.56417 | 113.67580 | 12889 ft | 339 kts | 72° |
| 2026-04-29 13:56 | 21.57566 | 113.69758 | 12891 ft | 335 kts | 45° |
| 2026-04-29 13:56 | 21.59398 | 113.71250 | 12895 ft | 330 kts | 27° |
| 2026-04-29 13:56 | 21.61394 | 113.72460 | 12892 ft | 330 kts | 25° |
| 2026-04-29 13:56 | 21.63379 | 113.73639 | 12892 ft | 331 kts | 25° |
| 2026-04-29 13:57 | 21.65392 | 113.74848 | 12891 ft | 331 kts | 26° |
| 2026-04-29 13:57 | 21.67401 | 113.76064 | 12801 ft | 331 kts | 26° |
| 2026-04-29 13:57 | 21.69412 | 113.77287 | 12444 ft | 331 kts | 26° |
| 2026-04-29 13:57 | 21.70739 | 113.78096 | 12103 ft | 331 kts | 26° |
| 2026-04-29 13:58 | 21.73415 | 113.79731 | 11439 ft | 330 kts | 26° |
| 2026-04-29 13:58 | 21.75387 | 113.80981 | 10967 ft | 329 kts | 30° |
| 2026-04-29 13:58 | 21.77184 | 113.82518 | 10563 ft | 328 kts | 39° |
| 2026-04-29 13:58 | 21.78855 | 113.84152 | 10313 ft | 322 kts | 40° |
| 2026-04-29 13:59 | 21.80483 | 113.85760 | 10134 ft | 321 kts | 40° |